Time;durP1;ratioP1;P1;durP2;ratioP2;P2;SDS_P1;SDS_P2;PMS_P1;PMS_P2;Temp;Humidity;BMP_temperature;BMP_pressure;BME280_temperature;BME280_humidity;BME280_pressure;Samples;Min_cycle;Max_cycle;Signal;HPM_P1;HPM_P2
2022/05/23 00:01:14;;;;;;;10.40;6.22;;;;;;;19.74;50.49;100646.06;5007428;28;20034;-66
2022/05/23 00:03:40;;;;;;;11.45;6.57;;;;;;;19.72;50.65;100648.34;5008649;28;20792;-66
2022/05/23 00:06:19;;;;;;;12.65;6.50;;;;;;;19.75;50.36;100644.09;5012280;28;20041;-65
2022/05/23 00:08:49;;;;;;;13.13;6.60;;;;;;;19.74;50.36;100642.44;5011931;28;20030;-65
2022/05/23 00:11:16;;;;;;;11.38;6.72;;;;;;;19.69;50.50;100637.75;5013863;28;20038;-65
2022/05/23 00:13:42;;;;;;;14.63;6.82;;;;;;;19.71;50.59;100648.69;5016185;28;20172;-66
2022/05/23 00:16:08;;;;;;;10.10;6.82;;;;;;;19.68;50.74;100647.34;5010712;28;20021;-66
2022/05/23 00:18:33;;;;;;;11.02;6.32;;;;;;;19.66;51.36;100635.56;5011745;28;20100;-66
2022/05/23 00:20:59;;;;;;;10.60;6.63;;;;;;;19.63;51.84;100644.66;5016478;28;20037;-65
2022/05/23 00:23:24;;;;;;;12.30;6.80;;;;;;;19.61;52.12;100638.50;5013146;28;20077;-65
2022/05/23 00:25:50;;;;;;;10.93;6.80;;;;;;;19.61;51.40;100628.09;5011700;28;20041;-65
2022/05/23 00:28:15;;;;;;;9.05;6.55;;;;;;;19.60;51.14;100615.13;5013671;28;20603;-65
2022/05/23 00:30:41;;;;;;;9.98;7.05;;;;;;;19.61;50.98;100616.84;5013026;28;20374;-65
2022/05/23 00:35:52;;;;;;;12.30;6.65;;;;;;;19.58;51.02;100616.59;5015449;28;20212;-65
2022/05/23 00:38:18;;;;;;;10.82;6.78;;;;;;;19.56;50.84;100632.97;5009877;28;20073;-65
2022/05/23 00:44:02;;;;;;;11.80;7.20;;;;;;;19.51;51.85;100621.84;5012889;28;20568;-66
2022/05/23 00:46:28;;;;;;;12.32;7.40;;;;;;;19.42;51.31;100615.31;5010259;28;20034;-65
2022/05/23 00:48:53;;;;;;;14.60;7.75;;;;;;;19.49;51.38;100610.91;5011545;28;20445;-65
2022/05/23 00:51:19;;;;;;;12.25;7.47;;;;;;;19.48;51.10;100599.94;5012895;28;20378;-65
2022/05/23 00:53:53;;;;;;;11.07;7.85;;;;;;;19.49;50.94;100593.16;5011665;28;20520;-65
2022/05/23 00:56:20;;;;;;;15.20;8.60;;;;;;;19.45;52.00;100592.13;5011983;28;20068;-65
2022/05/23 00:58:49;;;;;;;12.52;8.25;;;;;;;19.38;52.02;100585.00;5011953;28;20037;-65
2022/05/23 01:01:20;;;;;;;16.25;8.25;;;;;;;19.34;52.05;100581.16;5010231;28;20552;-65
2022/05/23 01:03:45;;;;;;;12.75;7.65;;;;;;;19.38;51.73;100581.34;5012188;28;20030;-65
2022/05/23 01:06:11;;;;;;;11.52;7.82;;;;;;;19.34;51.78;100581.16;5010261;28;20034;-65
2022/05/23 01:08:39;;;;;;;12.60;7.93;;;;;;;19.31;52.41;100587.41;5010270;28;20133;-65
2022/05/23 01:11:06;;;;;;;12.63;7.57;;;;;;;19.31;52.01;100595.84;5004924;28;20019;-65
2022/05/23 01:13:32;;;;;;;15.25;7.40;;;;;;;19.31;52.67;100601.47;5031195;28;20456;-66
2022/05/23 01:15:58;;;;;;;14.27;7.47;;;;;;;19.27;53.16;100602.44;5011484;28;20036;-65
2022/05/23 01:18:23;;;;;;;11.32;7.63;;;;;;;19.24;52.85;100611.50;5010705;28;20033;-65
2022/05/23 01:20:56;;;;;;;12.75;7.30;;;;;;;19.16;53.38;100612.25;5010422;28;20034;-65
2022/05/23 01:23:44;;;;;;;12.85;7.55;;;;;;;19.19;53.28;100606.84;4998410;28;20076;-65
2022/05/23 01:26:10;;;;;;;13.18;7.43;;;;;;;19.18;53.70;100588.31;5011928;28;20041;-65
2022/05/23 01:28:38;;;;;;;14.15;7.57;;;;;;;19.16;53.52;100589.75;5016055;28;20381;-65
2022/05/23 01:31:04;;;;;;;14.77;7.75;;;;;;;19.10;53.51;100589.88;5011118;28;20026;-65
2022/05/23 01:33:30;;;;;;;15.55;8.13;;;;;;;19.04;54.12;100582.69;5012060;28;20033;-64
2022/05/23 01:35:57;;;;;;;11.57;7.63;;;;;;;19.06;53.96;100586.03;5008322;28;20377;-65
2022/05/23 01:38:23;;;;;;;10.43;7.05;;;;;;;19.10;53.08;100569.38;5017280;28;20042;-65
2022/05/23 01:40:48;;;;;;;15.02;7.65;;;;;;;19.08;53.05;100575.28;5019824;28;20028;-65
2022/05/23 01:43:14;;;;;;;13.48;7.50;;;;;;;19.06;52.82;100576.75;5014399;28;20120;-65
2022/05/23 01:45:40;;;;;;;12.93;7.50;;;;;;;19.00;53.79;100576.03;5012598;28;20101;-65
2022/05/23 01:48:06;;;;;;;13.75;8.27;;;;;;;18.95;54.29;100583.78;5013478;28;20381;-65
2022/05/23 01:50:31;;;;;;;11.68;7.47;;;;;;;18.97;54.16;100582.28;5011065;28;20029;-65
2022/05/23 01:52:58;;;;;;;13.27;7.47;;;;;;;18.91;54.42;100583.56;5011040;28;20029;-65
2022/05/23 01:55:23;;;;;;;10.98;7.85;;;;;;;18.87;54.25;100583.38;5011795;28;20033;-65
2022/05/23 01:57:49;;;;;;;14.02;8.32;;;;;;;18.81;54.88;100581.81;5008281;28;20529;-65
2022/05/23 02:03:03;;;;;;;14.40;8.38;;;;;;;18.76;55.26;100567.88;5011129;28;20049;-65
2022/05/23 02:05:30;;;;;;;11.50;7.93;;;;;;;18.71;54.98;100556.75;5011917;28;20110;-65
2022/05/23 02:07:56;;;;;;;13.55;8.30;;;;;;;18.70;55.20;100560.69;5010712;28;20037;-65
2022/05/23 02:10:22;;;;;;;13.30;8.52;;;;;;;18.65;55.13;100561.59;5010953;28;20480;-65
2022/05/23 02:12:48;;;;;;;12.63;9.02;;;;;;;18.66;55.27;100556.81;5012016;28;20129;-65
2022/05/23 02:15:15;;;;;;;15.73;9.40;;;;;;;18.69;55.14;100560.97;5011578;28;20034;-66
2022/05/23 02:17:41;;;;;;;12.48;9.07;;;;;;;18.66;55.11;100562.44;5010333;28;20072;-65
2022/05/23 02:20:07;;;;;;;12.55;8.13;;;;;;;18.68;54.98;100562.97;5011351;28;20029;-65
2022/05/23 02:22:33;;;;;;;11.68;8.82;;;;;;;18.61;55.70;100560.56;5010526;28;20397;-65
2022/05/23 02:24:59;;;;;;;14.38;9.00;;;;;;;18.62;55.37;100561.38;5007861;28;20760;-65
2022/05/23 02:27:24;;;;;;;16.23;9.32;;;;;;;18.58;55.69;100549.13;5011791;28;20041;-64
2022/05/23 02:29:50;;;;;;;12.32;9.85;;;;;;;18.59;55.53;100550.81;5009579;28;20038;-65
2022/05/23 02:32:15;;;;;;;14.55;9.18;;;;;;;18.56;55.69;100543.00;5010526;28;20030;-64
2022/05/23 02:34:47;;;;;;;13.55;9.50;;;;;;;18.60;55.65;100550.47;5011014;28;20026;-64
2022/05/23 02:37:12;;;;;;;12.80;8.93;;;;;;;18.55;55.64;100542.16;5009825;28;20436;-64
2022/05/23 02:39:37;;;;;;;15.35;9.68;;;;;;;18.51;56.20;100545.88;5009669;28;20033;-64
2022/05/23 02:42:03;;;;;;;19.95;9.90;;;;;;;18.52;56.04;100536.34;5009309;28;20029;-64
2022/05/23 02:44:28;;;;;;;16.10;10.30;;;;;;;18.51;56.19;100540.25;5010518;28;20088;-65
2022/05/23 02:46:55;;;;;;;13.30;9.48;;;;;;;18.54;56.24;100526.41;5011050;28;20452;-65
2022/05/23 02:49:21;;;;;;;14.10;9.50;;;;;;;18.49;56.43;100520.09;5010603;28;20047;-65
2022/05/23 02:51:47;;;;;;;13.15;9.45;;;;;;;18.47;56.52;100517.59;5011441;28;20539;-65
2022/05/23 02:54:13;;;;;;;12.85;9.23;;;;;;;18.46;56.37;100506.66;5008659;28;20413;-65
2022/05/23 02:56:38;;;;;;;14.80;9.85;;;;;;;18.41;55.67;100499.19;5010235;28;20044;-64
2022/05/23 02:59:04;;;;;;;13.07;9.48;;;;;;;18.42;56.38;100495.22;5009342;28;20407;-64
2022/05/23 03:01:30;;;;;;;14.75;9.48;;;;;;;18.38;56.60;100480.97;5010079;28;20041;-64
2022/05/23 03:03:55;;;;;;;14.23;9.75;;;;;;;18.42;56.59;100471.91;5010207;28;20026;-64
2022/05/23 03:06:20;;;;;;;14.20;9.38;;;;;;;18.37;56.71;100467.25;5006521;28;20117;-64
2022/05/23 03:08:46;;;;;;;13.18;9.02;;;;;;;18.38;56.18;100458.47;5010961;28;20041;-64
2022/05/23 03:11:11;;;;;;;14.05;9.93;;;;;;;18.35;56.22;100445.09;5009352;28;20022;-65
2022/05/23 03:13:36;;;;;;;16.63;9.80;;;;;;;18.35;56.26;100442.28;5010777;28;20443;-66
2022/05/23 03:16:10;;;;;;;12.63;9.20;;;;;;;18.31;56.48;100440.38;5008684;28;20034;-65
2022/05/23 03:18:35;;;;;;;14.52;9.55;;;;;;;18.31;56.48;100440.38;4995256;28;20030;-65
2022/05/23 03:21:07;;;;;;;10.25;9.05;;;;;;;18.29;56.34;100437.06;5010747;28;20081;-65
2022/05/23 03:29:06;;;;;;;16.88;9.55;;;;;;;18.33;56.25;100416.47;5010644;28;20082;-65
2022/05/23 03:31:31;;;;;;;12.45;9.38;;;;;;;18.32;56.23;100413.97;5010355;28;20604;-65
2022/05/23 03:33:56;;;;;;;13.77;9.43;;;;;;;18.27;56.53;100414.06;5009294;28;20098;-65
2022/05/23 03:36:22;;;;;;;13.25;9.02;;;;;;;18.27;56.19;100414.91;5009973;28;20657;-65
2022/05/23 03:38:47;;;;;;;15.32;8.95;;;;;;;18.24;56.68;100409.09;5010224;28;20486;-64
2022/05/23 03:41:16;;;;;;;14.07;9.40;;;;;;;18.20;56.81;100405.28;5008857;28;20038;-64
2022/05/23 03:43:41;;;;;;;12.55;9.50;;;;;;;18.15;56.96;100398.59;5010854;28;20022;-65
2022/05/23 03:46:13;;;;;;;13.23;9.02;;;;;;;18.16;57.19;100399.44;5014309;28;20041;-65
2022/05/23 03:48:39;;;;;;;12.95;9.10;;;;;;;18.11;57.06;100391.94;5013775;28;20045;-65
2022/05/23 03:51:06;;;;;;;15.23;10.10;;;;;;;18.06;57.79;100392.06;5016022;28;20029;-65
2022/05/23 03:53:31;;;;;;;13.88;9.75;;;;;;;18.04;57.62;100385.94;5012515;28;20083;-64
2022/05/23 03:55:58;;;;;;;16.95;9.35;;;;;;;18.08;57.15;100378.56;5012427;28;20029;-65
2022/05/23 03:58:24;;;;;;;15.60;9.23;;;;;;;18.05;57.55;100386.78;5013407;28;20038;-65
2022/05/23 04:00:50;;;;;;;11.25;9.23;;;;;;;18.00;58.07;100384.06;5013255;28;20018;-65
2022/05/23 04:03:24;;;;;;;14.18;9.70;;;;;;;18.03;57.75;100375.00;5013354;28;20033;-65
2022/05/23 04:05:49;;;;;;;14.23;9.43;;;;;;;17.94;57.76;100386.16;5011556;28;20069;-64
2022/05/23 04:08:15;;;;;;;11.93;9.45;;;;;;;17.95;58.31;100372.94;5012540;28;20061;-65
2022/05/23 04:10:40;;;;;;;12.15;9.57;;;;;;;17.96;58.28;100371.78;5013604;28;20030;-65
2022/05/23 04:13:06;;;;;;;14.02;9.25;;;;;;;17.94;58.28;100372.13;5012823;28;20053;-64
2022/05/23 04:15:32;;;;;;;13.60;9.85;;;;;;;17.93;58.43;100366.81;5013617;28;20469;-65
2022/05/23 04:18:00;;;;;;;14.70;10.50;;;;;;;17.95;58.28;100356.09;5011897;28;20022;-65
2022/05/23 04:20:26;;;;;;;18.05;9.95;;;;;;;17.91;57.82;100347.47;5013399;28;20033;-65
2022/05/23 04:22:53;;;;;;;14.57;10.25;;;;;;;17.96;57.90;100352.13;5012895;28;20037;-65
2022/05/23 04:25:18;;;;;;;11.48;10.10;;;;;;;17.94;58.18;100354.44;5012554;28;20117;-65
2022/05/23 04:27:43;;;;;;;14.02;9.00;;;;;;;17.94;58.54;100354.44;5014198;28;20172;-65
2022/05/23 04:30:10;;;;;;;14.43;9.82;;;;;;;17.91;58.33;100353.91;5007490;28;20076;-64
2022/05/23 04:35:22;;;;;;;12.65;8.57;;;;;;;18.02;58.17;100348.06;5018231;28;20088;-65
2022/05/23 04:37:50;;;;;;;14.05;9.93;;;;;;;18.01;58.30;100347.25;5024098;28;20489;-64
2022/05/23 04:40:21;;;;;;;15.57;9.30;;;;;;;18.00;58.37;100344.75;5012663;28;20129;-67
2022/05/23 04:42:46;;;;;;;14.80;9.63;;;;;;;18.05;58.15;100337.06;5003358;28;20072;-65
2022/05/23 04:45:14;;;;;;;16.17;10.02;;;;;;;18.02;58.29;100337.66;5011270;28;20489;-65
2022/05/23 04:50:24;;;;;;;15.35;9.75;;;;;;;18.01;58.47;100332.38;5004152;28;20148;-65
2022/05/23 04:52:50;;;;;;;17.58;9.95;;;;;;;18.04;58.79;100328.94;5010726;28;20038;-66
2022/05/23 04:55:16;;;;;;;13.52;9.18;;;;;;;18.03;58.98;100327.25;5012981;28;20026;-65
2022/05/23 04:57:42;;;;;;;11.77;9.05;;;;;;;18.04;58.83;100320.53;5011489;28;20026;-65
2022/05/23 05:00:13;;;;;;;21.65;9.63;;;;;;;18.06;58.90;100316.22;5011870;28;20033;-65
2022/05/23 05:02:39;;;;;;;13.35;9.68;;;;;;;18.07;58.75;100322.69;5015521;28;20022;-65
2022/05/23 05:05:06;;;;;;;15.32;9.95;;;;;;;18.09;59.14;100324.03;5018902;28;20045;-65
2022/05/23 05:07:32;;;;;;;18.70;10.02;;;;;;;18.10;59.72;100322.06;5011633;28;20026;-65
2022/05/23 05:09:57;;;;;;;16.70;9.65;;;;;;;18.11;59.46;100316.09;5013380;28;20199;-65
2022/05/23 05:12:22;;;;;;;12.07;9.02;;;;;;;18.15;59.50;100303.09;5012385;28;20037;-65
2022/05/23 05:14:48;;;;;;;15.68;10.00;;;;;;;18.21;59.56;100303.00;5010571;28;20026;-65
2022/05/23 05:17:22;;;;;;;16.77;9.82;;;;;;;18.25;58.77;100292.78;5012794;28;20079;-64
2022/05/23 05:19:50;;;;;;;15.65;10.15;;;;;;;18.20;59.41;100285.31;5011661;28;20160;-64
2022/05/23 05:22:16;;;;;;;19.25;9.95;;;;;;;18.22;58.88;100285.81;5012655;28;20120;-64
2022/05/23 05:24:41;;;;;;;12.73;9.23;;;;;;;18.30;58.31;100276.63;5009445;28;20121;-64
2022/05/23 05:27:06;;;;;;;18.60;9.65;;;;;;;18.30;58.80;100267.34;5012127;28;20026;-64
2022/05/23 05:29:32;;;;;;;15.90;10.75;;;;;;;18.29;59.26;100272.16;5010419;28;20030;-64
2022/05/23 05:32:09;;;;;;;12.93;9.95;;;;;;;18.26;59.48;100267.16;5011534;28;20547;-65
2022/05/23 05:34:47;;;;;;;14.90;10.07;;;;;;;18.33;59.36;100264.75;5009601;28;20044;-65
2022/05/23 05:37:19;;;;;;;12.63;10.15;;;;;;;18.35;59.00;100255.97;5008763;28;20053;-65
2022/05/23 05:39:47;;;;;;;17.13;10.27;;;;;;;18.36;59.16;100257.66;5010275;28;20064;-64
2022/05/23 05:42:19;;;;;;;12.60;9.65;;;;;;;18.35;59.59;100254.03;5008941;28;20026;-64
2022/05/23 05:44:51;;;;;;;16.17;10.18;;;;;;;18.40;59.32;100248.28;5002547;28;20013;-64
2022/05/23 05:47:19;;;;;;;12.55;9.45;;;;;;;18.42;59.49;100245.13;5010771;28;20049;-65
2022/05/23 05:49:49;;;;;;;14.73;9.43;;;;;;;18.45;59.16;100235.25;5010779;28;20477;-65
2022/05/23 05:52:18;;;;;;;17.42;9.73;;;;;;;18.49;58.96;100236.25;5009398;28;20430;-64
2022/05/23 05:54:44;;;;;;;15.75;9.43;;;;;;;18.54;58.86;100231.31;5026345;28;20029;-65
2022/05/23 05:57:13;;;;;;;14.27;9.48;;;;;;;18.47;59.43;100230.97;5009951;28;20034;-65
2022/05/23 05:59:39;;;;;;;12.02;9.38;;;;;;;18.51;58.82;100225.50;5007134;28;20034;-65
2022/05/23 06:02:08;;;;;;;11.80;9.18;;;;;;;18.55;58.93;100227.38;5007191;28;20072;-65
2022/05/23 06:04:37;;;;;;;16.45;9.73;;;;;;;18.57;58.90;100230.69;5005316;28;20034;-64
2022/05/23 06:12:31;;;;;;;13.15;8.63;;;;;;;18.71;58.47;100229.81;5009939;28;20124;-64
2022/05/23 06:14:57;;;;;;;12.07;9.02;;;;;;;18.71;58.00;100229.81;5011208;28;20469;-64
2022/05/23 06:17:23;;;;;;;15.60;9.25;;;;;;;18.71;58.22;100225.00;4999685;28;20030;-65
2022/05/23 06:19:48;;;;;;;14.25;9.00;;;;;;;18.73;57.99;100214.25;5000586;28;20127;-65
2022/05/23 06:22:15;;;;;;;14.77;9.73;;;;;;;18.81;58.09;100207.00;5007428;28;20030;-64
2022/05/23 06:24:41;;;;;;;14.15;8.85;;;;;;;18.81;57.78;100207.84;5009389;28;20068;-65
2022/05/23 06:27:08;;;;;;;14.10;8.85;;;;;;;18.84;57.82;100201.56;5008740;28;20109;-65
2022/05/23 06:29:34;;;;;;;13.52;9.13;;;;;;;18.86;57.93;100199.28;5008610;28;20045;-67
2022/05/23 06:32:01;;;;;;;12.48;8.77;;;;;;;18.89;58.11;100192.97;5007407;28;20116;-68
2022/05/23 06:34:27;;;;;;;12.85;9.05;;;;;;;18.90;57.92;100199.44;5008284;28;20048;-65
2022/05/23 06:36:52;;;;;;;13.13;9.10;;;;;;;18.92;57.84;100196.31;5008854;28;20056;-68
2022/05/23 06:39:17;;;;;;;12.10;8.80;;;;;;;18.95;58.20;100190.06;5004891;28;20057;-67
2022/05/23 06:41:43;;;;;;;13.38;8.52;;;;;;;18.99;57.75;100200.31;5006263;28;20069;-67
2022/05/23 06:44:08;;;;;;;10.48;7.93;;;;;;;19.04;57.51;100200.16;5006782;28;20033;-64
2022/05/23 06:46:33;;;;;;;11.38;8.50;;;;;;;19.02;57.25;100196.00;5006544;28;20125;-64
2022/05/23 06:48:59;;;;;;;14.63;9.05;;;;;;;19.07;57.34;100191.06;5007038;28;20033;-65
2022/05/23 06:51:24;;;;;;;12.40;8.02;;;;;;;19.18;56.63;100199.19;5006396;28;20036;-68
2022/05/23 06:53:50;;;;;;;9.55;7.80;;;;;;;19.27;56.81;100195.25;5008356;28;20044;-65
2022/05/23 06:56:16;;;;;;;11.32;7.80;;;;;;;19.32;56.32;100197.91;5007937;28;20029;-64
2022/05/23 06:58:41;;;;;;;13.95;7.18;;;;;;;19.35;55.96;100200.09;5008445;28;20041;-65
2022/05/23 07:01:06;;;;;;;12.18;7.18;;;;;;;19.37;55.85;100196.94;5007037;28;20045;-66
2022/05/23 07:03:32;;;;;;;12.45;8.20;;;;;;;19.38;56.44;100199.44;5005416;28;20615;-66
2022/05/23 07:14:15;;;;;;;9.52;7.05;;;;;;;19.45;56.07;100201.75;5006878;28;20040;-69
2022/05/23 07:16:41;;;;;;;11.57;7.88;;;;;;;19.43;55.91;100183.53;5007626;28;20033;-64
2022/05/23 07:19:06;;;;;;;11.90;7.88;;;;;;;19.44;55.80;100188.84;5005554;28;20045;-67
2022/05/23 07:21:32;;;;;;;9.15;7.90;;;;;;;19.47;56.19;100196.63;5004992;28;20037;-67
2022/05/23 07:23:58;;;;;;;13.70;8.32;;;;;;;19.44;57.44;100188.00;5005888;28;20044;-65
2022/05/23 07:26:24;;;;;;;14.35;8.68;;;;;;;19.39;56.45;100189.00;5004874;28;20029;-65
2022/05/23 07:28:50;;;;;;;11.38;7.75;;;;;;;19.38;56.62;100192.97;5007841;28;20404;-66
2022/05/23 07:31:17;;;;;;;7.75;6.53;;;;;;;19.40;56.23;100198.25;5009659;28;20030;-66
2022/05/23 07:33:43;;;;;;;10.35;6.45;;;;;;;19.37;56.25;100194.09;5007051;28;20034;-68
2022/05/23 07:36:09;;;;;;;11.85;7.05;;;;;;;19.36;56.45;100200.91;5008741;28;20463;-68
2022/05/23 07:38:38;;;;;;;11.70;7.03;;;;;;;19.37;56.72;100199.75;5003842;28;20109;-66
2022/05/23 07:41:07;;;;;;;12.93;7.10;;;;;;;19.42;56.63;100205.22;5007038;28;20080;-68
2022/05/23 07:43:37;;;;;;;9.18;6.50;;;;;;;19.48;56.22;100186.19;5008173;28;20060;-67
2022/05/23 07:46:08;;;;;;;8.70;6.43;;;;;;;19.51;56.41;100180.72;5008657;28;20034;-65
2022/05/23 07:48:34;;;;;;;14.47;6.80;;;;;;;19.62;56.10;100175.66;5010705;28;20108;-65
2022/05/23 07:50:59;;;;;;;9.23;6.30;;;;;;;19.67;55.72;100166.22;5002648;28;20125;-65
2022/05/23 08:01:36;;;;;;;9.60;6.75;;;;;;;19.84;55.29;100175.47;5006141;28;20061;-65
2022/05/23 08:04:01;;;;;;;11.85;6.18;;;;;;;20.02;54.87;100172.66;5009514;28;20026;-64
2022/05/23 08:06:31;;;;;;;9.35;5.35;;;;;;;20.12;55.02;100166.66;5009071;28;20038;-65
2022/05/23 08:08:57;;;;;;;14.55;5.82;;;;;;;20.18;54.44;100158.88;5005632;28;20029;-66
2022/05/23 08:11:22;;;;;;;9.95;6.40;;;;;;;20.19;54.02;100150.06;5003581;28;20033;-65
2022/05/23 08:13:53;;;;;;;10.27;5.95;;;;;;;20.21;54.68;100144.13;5006484;28;20038;-65
2022/05/23 08:16:19;;;;;;;11.00;5.50;;;;;;;20.21;54.52;100141.31;5001129;28;20026;-64
2022/05/23 08:18:44;;;;;;;8.68;6.30;;;;;;;20.19;53.54;100143.63;5009396;28;20029;-65
2022/05/23 08:21:09;;;;;;;10.07;6.10;;;;;;;20.14;54.13;100139.00;5009752;28;20029;-65
2022/05/23 08:23:34;;;;;;;13.13;5.95;;;;;;;20.13;54.07;100139.34;5007750;28;20548;-65
2022/05/23 08:26:00;;;;;;;9.73;6.13;;;;;;;20.08;53.77;100140.31;5009568;28;20073;-65
2022/05/23 08:28:25;;;;;;;9.23;5.13;;;;;;;20.08;53.80;100131.84;5011198;28;20475;-65
2022/05/23 08:30:57;;;;;;;8.30;5.22;;;;;;;20.08;53.63;100126.22;5010922;28;20519;-65
2022/05/23 08:33:23;;;;;;;12.00;5.72;;;;;;;20.07;55.37;100127.41;5012300;28;20049;-64
2022/05/23 08:35:51;;;;;;;13.93;7.25;;;;;;;20.08;55.45;100129.03;5008082;28;20034;-63
2022/05/23 08:38:19;;;;;;;11.73;6.00;;;;;;;20.07;55.43;100119.78;5007199;28;20572;-63
2022/05/23 08:41:15;;;;;;;9.48;4.93;;;;;;;20.10;55.21;100107.00;5009385;28;20056;-64
2022/05/23 08:44:07;;;;;;;9.90;5.63;;;;;;;20.11;54.80;100095.41;5006012;28;20088;-64
2022/05/23 08:47:10;;;;;;;9.23;5.45;;;;;;;20.16;54.79;100099.19;5005063;28;20421;-64
2022/05/23 08:49:54;;;;;;;;;;;;;;;20.24;54.69;100096.38;5003526;28;20442;-63
2022/05/23 08:52:31;;;;;;;8.70;5.90;;;;;;;20.14;54.35;100091.09;5009574;28;19921;-63
2022/05/23 08:55:28;;;;;;;12.48;5.80;;;;;;;20.21;54.85;100094.22;5007800;28;20557;-64
2022/05/23 08:58:10;;;;;;;11.27;5.93;;;;;;;20.16;54.24;100085.97;4989433;28;20053;-63
2022/05/23 09:00:44;;;;;;;8.75;4.90;;;;;;;20.16;54.23;100082.28;5004306;28;20068;-62
2022/05/23 09:03:13;;;;;;;9.13;5.13;;;;;;;20.19;54.06;100079.63;5010681;28;20048;-63
2022/05/23 09:05:46;;;;;;;9.75;5.18;;;;;;;20.18;53.77;100080.81;5008392;28;20065;-63
2022/05/23 09:08:16;;;;;;;10.15;4.75;;;;;;;20.23;53.58;100072.16;5002384;28;20037;-63
2022/05/23 09:11:07;;;;;;;9.27;5.40;;;;;;;20.26;53.79;100057.41;5008826;28;20081;-63
2022/05/23 09:13:39;;;;;;;12.65;5.25;;;;;;;20.28;53.62;100057.09;5010942;28;20045;-63
2022/05/23 09:16:08;;;;;;;11.25;4.97;;;;;;;20.27;54.28;100056.22;5010895;28;20072;-63
2022/05/23 09:18:42;;;;;;;11.00;5.68;;;;;;;20.28;54.70;100045.81;5007814;28;20125;-63
2022/05/23 09:21:08;;;;;;;9.75;5.18;;;;;;;20.29;54.93;100053.91;5012438;28;20105;-63
2022/05/23 09:23:43;;;;;;;11.55;4.80;;;;;;;20.28;54.66;100055.09;5006906;28;20050;-63
2022/05/23 09:26:16;;;;;;;11.07;4.85;;;;;;;20.29;54.65;100064.38;5010615;28;20045;-62
2022/05/23 09:28:42;;;;;;;10.85;5.25;;;;;;;20.26;54.25;100040.50;5008364;28;20044;-62
2022/05/23 09:31:19;;;;;;;9.95;5.57;;;;;;;20.23;53.91;100043.97;4997106;28;20042;-62
2022/05/23 09:33:48;;;;;;;11.38;5.93;;;;;;;20.19;53.64;100039.34;5010109;28;20033;-62
2022/05/23 09:36:19;;;;;;;9.68;5.00;;;;;;;20.19;54.23;100030.91;5000077;28;20018;-62
2022/05/23 09:38:52;;;;;;;7.80;4.70;;;;;;;20.25;54.33;100023.94;5007356;28;20489;-62
2022/05/23 09:47:44;;;;;;;9.00;5.05;;;;;;;20.56;54.46;99999.09;5007709;28;20084;-63
2022/05/23 09:50:10;;;;;;;9.80;4.78;;;;;;;20.62;54.71;99996.06;5010492;28;20037;-63
2022/05/23 09:52:47;;;;;;;10.00;6.30;;;;;;;20.61;54.92;100000.06;5007344;28;20041;-63
2022/05/23 09:55:31;;;;;;;11.57;6.03;;;;;;;20.60;53.74;99990.78;5016502;28;20038;-63
2022/05/23 09:57:59;;;;;;;8.70;5.50;;;;;;;20.67;53.33;99979.78;5008098;28;20036;-63
2022/05/23 10:00:25;;;;;;;11.38;6.57;;;;;;;20.90;54.34;99982.25;5004178;28;20149;-61
2022/05/23 10:02:57;;;;;;;13.13;6.15;;;;;;;21.03;52.47;99967.06;5003561;28;20507;-64
2022/05/23 10:05:41;;;;;;;12.30;5.70;;;;;;;21.17;53.04;99959.13;5005258;28;20037;-63
2022/05/23 10:08:31;;;;;;;9.70;5.45;;;;;;;21.24;52.10;99961.41;5010712;28;20042;-64
2022/05/23 10:11:00;;;;;;;11.35;6.30;;;;;;;21.30;51.42;99960.03;5009239;28;20034;-64
2022/05/23 10:13:29;;;;;;;12.73;4.72;;;;;;;21.38;52.55;99952.63;5004206;28;20478;-66
2022/05/23 10:16:14;;;;;;;11.48;5.88;;;;;;;21.51;51.61;99943.06;5006698;28;20087;-65
2022/05/23 10:18:50;;;;;;;10.45;6.00;;;;;;;21.62;51.60;99943.44;5003960;28;20029;-70
2022/05/23 10:21:39;;;;;;;7.90;5.63;;;;;;;21.73;51.86;99953.09;5010952;28;20117;-68
2022/05/23 10:24:07;;;;;;;7.65;5.70;;;;;;;21.81;50.64;99966.28;5007247;28;20077;-68
2022/05/23 10:26:56;;;;;;;6.32;4.05;;;;;;;21.90;51.50;99977.50;5013013;28;20030;-67
2022/05/23 10:29:53;;;;;;;7.57;4.45;;;;;;;21.96;50.84;99961.97;5010482;28;20037;-71
2022/05/23 10:32:41;;;;;;;10.52;4.97;;;;;;;22.03;50.18;99956.56;5008835;28;20028;-71
2022/05/23 10:35:36;;;;;;;10.90;4.95;;;;;;;22.15;50.82;99950.94;5007921;28;20033;-67
2022/05/23 10:43:56;;;;;;;8.77;5.00;;;;;;;22.50;49.58;99937.13;5009599;28;20049;-66
2022/05/23 10:46:24;;;;;;;9.30;5.20;;;;;;;22.52;48.52;99929.13;5005394;28;20050;-64
2022/05/23 10:49:20;;;;;;;8.25;5.00;;;;;;;22.60;49.34;99910.38;5004829;28;20038;-65
2022/05/23 10:52:08;;;;;;;6.90;5.00;;;;;;;22.75;49.41;99905.97;5004750;28;20037;-65
2022/05/23 10:54:52;;;;;;;10.35;5.00;;;;;;;22.81;49.26;99896.06;5005433;28;20536;-66
2022/05/23 10:57:32;;;;;;;8.68;5.60;;;;;;;22.86;48.67;99897.78;5003901;28;20038;-67
2022/05/23 11:00:06;;;;;;;7.65;4.78;;;;;;;22.90;46.71;99896.72;5007092;28;20041;-64
2022/05/23 11:03:00;;;;;;;7.20;4.88;;;;;;;22.94;47.59;99894.03;5009255;28;20037;-66
2022/05/23 11:05:55;;;;;;;8.40;4.60;;;;;;;23.00;47.61;99890.59;5008642;28;20516;-64
2022/05/23 11:08:58;;;;;;;10.75;4.13;;;;;;;23.11;47.35;99873.06;5009074;28;20038;-66
2022/05/23 11:11:51;;;;;;;7.32;4.47;;;;;;;23.17;47.02;99846.97;4998542;28;20046;-65
2022/05/23 11:14:42;;;;;;;9.13;4.63;;;;;;;23.30;46.83;99844.06;5006319;28;20073;-66
2022/05/23 11:17:10;;;;;;;10.45;4.57;;;;;;;23.42;46.80;99827.00;5003968;28;20075;-65
2022/05/23 11:19:35;;;;;;;8.13;4.75;;;;;;;23.33;45.56;99823.53;5011417;28;20057;-67
2022/05/23 11:22:20;;;;;;;8.93;4.30;;;;;;;23.31;46.61;99814.59;5010247;28;20041;-67
2022/05/23 11:24:51;;;;;;;9.52;4.07;;;;;;;23.22;45.61;99814.75;5005291;28;20966;-67
2022/05/23 11:36:00;;;;;;;7.22;2.60;;;;;;;23.01;43.66;99787.50;5010820;28;20120;-69
2022/05/23 11:38:28;;;;;;;5.22;2.70;;;;;;;23.05;43.72;99800.94;5005140;28;20077;-68
2022/05/23 11:41:07;;;;;;;5.38;2.60;;;;;;;23.07;43.98;99790.06;5005420;28;20041;-69
2022/05/23 11:43:36;;;;;;;6.47;3.03;;;;;;;23.07;43.51;99790.91;5013878;28;20099;-63
2022/05/23 11:46:05;;;;;;;4.50;2.83;;;;;;;23.09;44.02;99784.88;5006902;28;20034;-65
2022/05/23 11:48:50;;;;;;;7.22;3.50;;;;;;;23.05;44.66;99781.13;5007922;28;20029;-64
2022/05/23 11:51:26;;;;;;;6.75;3.10;;;;;;;23.02;44.69;99775.00;5019035;28;20457;-64
2022/05/23 11:54:08;;;;;;;7.88;3.20;;;;;;;22.99;44.51;99777.72;5008124;28;20072;-64
2022/05/23 11:56:40;;;;;;;5.70;2.70;;;;;;;22.98;44.20;99768.41;5009803;28;20084;-64
2022/05/23 11:59:11;;;;;;;4.38;2.67;;;;;;;22.96;43.01;99764.34;5008856;28;20288;-64
2022/05/23 12:01:37;;;;;;;5.50;2.60;;;;;;;23.00;43.54;99768.91;5004950;28;20033;-64
2022/05/23 12:04:02;;;;;;;6.70;2.80;;;;;;;22.99;44.68;99758.75;5013432;28;20041;-63
2022/05/23 12:06:28;;;;;;;5.38;3.25;;;;;;;22.95;43.97;99755.03;4999752;28;20513;-63
2022/05/23 12:09:11;;;;;;;5.90;3.10;;;;;;;22.92;44.62;99760.59;5009643;28;20489;-63
2022/05/23 12:11:39;;;;;;;7.65;2.70;;;;;;;22.84;43.59;99759.53;5009299;28;20509;-64
2022/05/23 12:14:16;;;;;;;4.43;2.80;;;;;;;22.79;44.29;99754.97;5009869;28;20044;-64
2022/05/23 12:16:54;;;;;;;4.65;2.85;;;;;;;22.75;44.02;99759.72;5002818;28;20101;-66
2022/05/23 12:19:41;;;;;;;4.78;2.35;;;;;;;22.75;44.75;99754.03;5010617;28;20524;-66
2022/05/23 12:22:12;;;;;;;5.18;2.80;;;;;;;22.71;44.47;99744.59;5006740;28;20064;-65
2022/05/23 12:25:09;;;;;;;5.35;2.45;;;;;;;22.75;45.87;99750.38;5010539;28;20057;-64
2022/05/23 12:27:59;;;;;;;4.63;2.28;;;;;;;22.72;44.39;99746.28;5010065;28;20045;-65
2022/05/23 12:30:34;;;;;;;5.07;2.60;;;;;;;22.74;44.70;99741.06;5005090;28;20517;-65
2022/05/23 12:32:59;;;;;;;4.43;2.33;;;;;;;22.75;44.45;99741.88;5011663;28;20038;-64
2022/05/23 12:35:51;;;;;;;4.07;2.25;;;;;;;22.79;44.37;99737.13;5012334;28;20537;-65
2022/05/23 12:38:28;;;;;;;4.70;2.28;;;;;;;22.77;44.11;99731.84;5008460;28;20049;-65